Time;durP1;ratioP1;P1;durP2;ratioP2;P2;SDS_P1;SDS_P2;PMS_P1;PMS_P2;Temp;Humidity;BMP_temperature;BMP_pressure;BME280_temperature;BME280_humidity;BME280_pressure;Samples;Min_cycle;Max_cycle;Signal;HPM_P1;HPM_P2
2022/06/19 00:01:41;;;;;;;1999.90;999.90;;;;;;;;;;5104637;27;20421;-73
2022/06/19 00:04:09;;;;;;;1999.90;999.90;;;;;;;;;;5101868;27;20466;-72
2022/06/19 00:06:37;;;;;;;1999.90;999.90;;;;;;;;;;5105053;27;20401;-73
2022/06/19 00:09:05;;;;;;;1999.90;999.90;;;;;;;;;;5108462;27;20430;-73
2022/06/19 00:11:34;;;;;;;1999.90;999.90;;;;;;;;;;5088069;27;20399;-73
2022/06/19 00:14:04;;;;;;;1999.90;999.90;;;;;;;;;;5110416;27;20392;-73
2022/06/19 00:16:32;;;;;;;1999.90;999.90;;;;;;;;;;5079291;27;21158;-71
2022/06/19 00:19:00;;;;;;;1999.90;999.90;;;;;;;;;;5099118;27;20407;-73
2022/06/19 00:21:28;;;;;;;1999.90;999.90;;;;;;;;;;5110476;27;20391;-72
2022/06/19 00:23:56;;;;;;;1999.90;999.90;;;;;;;;;;5110751;27;20922;-73
2022/06/19 00:26:24;;;;;;;1999.90;999.90;;;;;;;;;;5111039;27;20403;-73
2022/06/19 00:28:52;;;;;;;1999.90;999.90;;;;;;;;;;5106409;27;20399;-73
2022/06/19 00:31:21;;;;;;;1999.90;999.90;;;;;;;;;;5080079;27;20430;-72
2022/06/19 00:33:49;;;;;;;1999.90;999.90;;;;;;;;;;5089949;27;20421;-72
2022/06/19 00:36:16;;;;;;;1999.90;999.90;;;;;;;;;;5107469;27;20402;-73
2022/06/19 00:38:44;;;;;;;1999.90;999.90;;;;;;;;;;5088799;27;20786;-73
2022/06/19 00:41:12;;;;;;;1999.90;999.90;;;;;;;;;;5102826;27;20394;-73
2022/06/19 00:43:56;;;;;;;1999.90;999.90;;;;;;;;;;5080353;27;20396;-73
2022/06/19 00:46:49;;;;;;;1999.90;999.90;;;;;;;;;;5105613;27;20417;-72
2022/06/19 00:49:20;;;;;;;1999.90;999.90;;;;;;;;;;5080225;27;20773;-73
2022/06/19 00:51:50;;;;;;;1999.90;999.90;;;;;;;;;;5089925;27;20448;-71
2022/06/19 00:54:21;;;;;;;1999.90;999.90;;;;;;;;;;5095826;27;20484;-74
2022/06/19 00:56:49;;;;;;;1999.90;999.90;;;;;;;;;;5105083;27;20402;-72
2022/06/19 00:59:18;;;;;;;1999.90;999.90;;;;;;;;;;5089313;27;20403;-72
2022/06/19 01:01:46;;;;;;;1999.90;999.90;;;;;;;;;;5099741;27;20403;-72
2022/06/19 01:04:17;;;;;;;1999.90;999.90;;;;;;;;;;5074009;27;20392;-72
2022/06/19 01:06:48;;;;;;;1999.90;999.90;;;;;;;;;;5078013;27;20387;-72
2022/06/19 01:09:16;;;;;;;1999.90;999.90;;;;;;;;;;5098573;27;20391;-72
2022/06/19 01:11:43;;;;;;;1999.90;999.90;;;;;;;;;;5100130;27;21381;-72
2022/06/19 01:14:14;;;;;;;1999.90;999.90;;;;;;;;;;5079750;27;20407;-72
2022/06/19 01:16:42;;;;;;;1999.90;999.90;;;;;;;;;;5096013;27;20450;-72
2022/06/19 01:19:11;;;;;;;1999.90;999.90;;;;;;;;;;5082127;27;20882;-72
2022/06/19 01:21:42;;;;;;;1999.90;999.90;;;;;;;;;;5077313;27;20411;-72
2022/06/19 01:24:14;;;;;;;1999.90;999.90;;;;;;;;;;5085541;27;20385;-73
2022/06/19 01:26:45;;;;;;;1999.90;999.90;;;;;;;;;;5091895;27;20889;-73
2022/06/19 01:29:13;;;;;;;1999.90;999.90;;;;;;;;;;5090870;27;20386;-73
2022/06/19 01:31:43;;;;;;;1999.90;999.90;;;;;;;;;;5080336;27;20394;-72
2022/06/19 01:37:09;;;;;;;1999.90;999.90;;;;;;;;;;5136090;27;20456;-72
2022/06/19 01:39:39;;;;;;;1999.90;999.90;;;;;;;;;;5135183;27;20412;-73
2022/06/19 01:42:08;;;;;;;1999.90;999.90;;;;;;;;;;5137233;27;20508;-72
2022/06/19 01:44:36;;;;;;;1999.90;999.90;;;;;;;;;;5119691;27;20504;-73
2022/06/19 01:47:04;;;;;;;1999.90;999.90;;;;;;;;;;5134283;27;20397;-72
2022/06/19 01:49:33;;;;;;;1999.90;999.90;;;;;;;;;;5142879;27;20404;-72
2022/06/19 01:52:02;;;;;;;1999.90;999.90;;;;;;;;;;5137047;27;20393;-72
2022/06/19 01:54:33;;;;;;;1999.90;999.90;;;;;;;;;;5133427;27;20457;-72
2022/06/19 01:57:01;;;;;;;1999.90;999.90;;;;;;;;;;5139997;27;20408;-71
2022/06/19 01:59:31;;;;;;;1999.90;999.90;;;;;;;;;;5141049;27;21560;-73
2022/06/19 02:01:59;;;;;;;1999.90;999.90;;;;;;;;;;5138602;27;20411;-72
2022/06/19 02:04:27;;;;;;;1999.90;999.90;;;;;;;;;;5131863;27;20800;-71
2022/06/19 02:06:57;;;;;;;1999.90;999.90;;;;;;;;;;5141670;27;20436;-70
2022/06/19 02:09:25;;;;;;;1999.90;999.90;;;;;;;;;;5140597;27;20379;-73
2022/06/19 02:11:56;;;;;;;1999.90;999.90;;;;;;;;;;5136197;27;20435;-73
2022/06/19 02:14:24;;;;;;;1999.90;999.90;;;;;;;;;;5139789;27;20387;-74
2022/06/19 02:16:52;;;;;;;1999.90;999.90;;;;;;;;;;5136836;27;20405;-72
2022/06/19 02:19:20;;;;;;;1999.90;999.90;;;;;;;;;;5131749;27;20826;-72
2022/06/19 02:21:49;;;;;;;1999.90;999.90;;;;;;;;;;5135534;27;20420;-73
2022/06/19 02:24:19;;;;;;;1999.90;999.90;;;;;;;;;;5139573;27;20345;-71
2022/06/19 02:26:51;;;;;;;1999.90;999.90;;;;;;;;;;5125924;27;20401;-72
2022/06/19 02:29:21;;;;;;;1999.90;999.90;;;;;;;;;;5140033;27;20401;-72
2022/06/19 02:31:50;;;;;;;1999.90;999.90;;;;;;;;;;5120092;27;20510;-72
2022/06/19 02:34:20;;;;;;;1999.90;999.90;;;;;;;;;;5137347;27;21215;-72
2022/06/19 02:36:49;;;;;;;1999.90;999.90;;;;;;;;;;5114840;27;20416;-72
2022/06/19 02:39:38;;;;;;;1999.90;999.90;;;;;;;;;;5133251;27;20397;-72
2022/06/19 02:42:11;;;;;;;1999.90;999.90;;;;;;;;;;5130910;27;20387;-73
2022/06/19 02:44:41;;;;;;;1999.90;999.90;;;;;;;;;;5135228;27;20581;-72
2022/06/19 02:47:09;;;;;;;1999.90;999.90;;;;;;;;;;5132319;27;20400;-72
2022/06/19 02:49:37;;;;;;;1999.90;999.90;;;;;;;;;;5120050;27;20503;-72
2022/06/19 02:52:06;;;;;;;1999.90;999.90;;;;;;;;;;5121563;27;20380;-72
2022/06/19 02:54:33;;;;;;;1999.90;999.90;;;;;;;;;;5124491;27;20381;-72
2022/06/19 02:57:02;;;;;;;1999.90;999.90;;;;;;;;;;5113447;27;20969;-73
2022/06/19 02:59:30;;;;;;;1999.90;999.90;;;;;;;;;;5126216;27;20414;-73
2022/06/19 03:01:59;;;;;;;1999.90;999.90;;;;;;;;;;5121395;27;20408;-72
2022/06/19 03:04:31;;;;;;;1999.90;999.90;;;;;;;;;;5136967;27;20402;-73
2022/06/19 03:06:59;;;;;;;1999.90;999.90;;;;;;;;;;5127103;27;21458;-73
2022/06/19 03:09:27;;;;;;;1999.90;999.90;;;;;;;;;;5122173;27;20417;-74
2022/06/19 03:11:54;;;;;;;1999.90;999.90;;;;;;;;;;5123096;27;20405;-72
2022/06/19 03:14:23;;;;;;;1999.90;999.90;;;;;;;;;;5122477;27;21139;-73
2022/06/19 03:16:51;;;;;;;1999.90;999.90;;;;;;;;;;5124830;27;20404;-73
2022/06/19 03:19:20;;;;;;;1999.90;999.90;;;;;;;;;;5121580;27;21252;-73
2022/06/19 03:21:49;;;;;;;1999.90;999.90;;;;;;;;;;5119404;27;21018;-73
2022/06/19 03:24:17;;;;;;;1999.90;999.90;;;;;;;;;;5122606;27;20459;-72
2022/06/19 03:26:45;;;;;;;1999.90;999.90;;;;;;;;;;5121784;27;20482;-72
2022/06/19 03:29:12;;;;;;;1999.90;999.90;;;;;;;;;;5126673;27;20798;-72
2022/06/19 03:31:40;;;;;;;1999.90;999.90;;;;;;;;;;5120127;27;20413;-72
2022/06/19 03:34:08;;;;;;;1999.90;999.90;;;;;;;;;;5121493;27;20451;-72
2022/06/19 03:36:37;;;;;;;1999.90;999.90;;;;;;;;;;5122825;27;20413;-72
2022/06/19 03:39:05;;;;;;;1999.90;999.90;;;;;;;;;;5122219;27;20409;-72
2022/06/19 03:41:33;;;;;;;1999.90;999.90;;;;;;;;;;5122729;27;20532;-72
2022/06/19 03:44:01;;;;;;;1999.90;999.90;;;;;;;;;;5125655;27;20409;-72
2022/06/19 03:46:29;;;;;;;1999.90;999.90;;;;;;;;;;5123074;27;20415;-73
2022/06/19 03:48:56;;;;;;;1999.90;999.90;;;;;;;;;;5125810;27;20894;-73
2022/06/19 03:51:24;;;;;;;1999.90;999.90;;;;;;;;;;5120543;27;20515;-72
2022/06/19 03:53:54;;;;;;;1999.90;999.90;;;;;;;;;;5126664;27;20392;-72
2022/06/19 03:56:23;;;;;;;1999.90;999.90;;;;;;;;;;5125143;27;20412;-72
2022/06/19 03:58:51;;;;;;;1999.90;999.90;;;;;;;;;;5102400;27;20389;-72
2022/06/19 04:01:20;;;;;;;1999.90;999.90;;;;;;;;;;5121350;27;20810;-72
2022/06/19 04:03:49;;;;;;;1999.90;999.90;;;;;;;;;;5126481;27;21883;-70
2022/06/19 04:06:18;;;;;;;1999.90;999.90;;;;;;;;;;5143207;27;20508;-71
2022/06/19 04:08:46;;;;;;;1999.90;999.90;;;;;;;;;;5117775;27;20929;-70
2022/06/19 04:11:16;;;;;;;1999.90;999.90;;;;;;;;;;5127045;27;20868;-71
2022/06/19 04:13:44;;;;;;;1999.90;999.90;;;;;;;;;;5121668;27;20424;-71
2022/06/19 04:16:16;;;;;;;1999.90;999.90;;;;;;;;;;5110096;27;21095;-75
2022/06/19 04:18:44;;;;;;;1999.90;999.90;;;;;;;;;;5115284;27;20955;-74
2022/06/19 04:21:13;;;;;;;1999.90;999.90;;;;;;;;;;5121904;27;20388;-74
2022/06/19 04:23:41;;;;;;;1999.90;999.90;;;;;;;;;;5121575;27;21218;-75
2022/06/19 04:26:10;;;;;;;1999.90;999.90;;;;;;;;;;5121592;27;20437;-75
2022/06/19 04:28:39;;;;;;;1999.90;999.90;;;;;;;;;;5134433;27;20898;-73
2022/06/19 04:31:07;;;;;;;1999.90;999.90;;;;;;;;;;5124926;27;20397;-75
2022/06/19 04:33:38;;;;;;;1999.90;999.90;;;;;;;;;;5124288;27;20476;-74
2022/06/19 04:36:07;;;;;;;1999.90;999.90;;;;;;;;;;5121589;27;20390;-74
2022/06/19 04:38:35;;;;;;;1999.90;999.90;;;;;;;;;;5125758;27;21053;-74
2022/06/19 04:41:03;;;;;;;1999.90;999.90;;;;;;;;;;5123121;27;20392;-75
2022/06/19 04:43:31;;;;;;;1999.90;999.90;;;;;;;;;;5125202;27;21039;-74
2022/06/19 04:46:03;;;;;;;1999.90;999.90;;;;;;;;;;5121197;27;20898;-75
2022/06/19 04:48:31;;;;;;;1999.90;999.90;;;;;;;;;;5127692;27;20412;-73
2022/06/19 04:50:59;;;;;;;1999.90;999.90;;;;;;;;;;5107400;27;20408;-74
2022/06/19 04:53:27;;;;;;;1999.90;999.90;;;;;;;;;;5126043;27;20404;-74
2022/06/19 04:55:56;;;;;;;1999.90;999.90;;;;;;;;;;5119095;27;20419;-75
2022/06/19 04:58:23;;;;;;;1999.90;999.90;;;;;;;;;;5123938;27;20397;-76
2022/06/19 05:00:52;;;;;;;1999.90;999.90;;;;;;;;;;5126079;27;20409;-75
2022/06/19 05:03:22;;;;;;;1999.90;999.90;;;;;;;;;;5121508;27;20401;-76
2022/06/19 05:05:50;;;;;;;1999.90;999.90;;;;;;;;;;5128743;27;20474;-76
2022/06/19 05:08:17;;;;;;;1999.90;999.90;;;;;;;;;;5128974;27;20396;-76
2022/06/19 05:10:45;;;;;;;1999.90;999.90;;;;;;;;;;5124511;27;20413;-76
2022/06/19 05:13:15;;;;;;;1999.90;999.90;;;;;;;;;;5107949;27;20849;-76
2022/06/19 05:15:42;;;;;;;1999.90;999.90;;;;;;;;;;5119204;27;20420;-75
2022/06/19 05:18:10;;;;;;;1999.90;999.90;;;;;;;;;;5113708;27;20412;-74
2022/06/19 05:20:39;;;;;;;1999.90;999.90;;;;;;;;;;5121818;27;20410;-74
2022/06/19 05:23:09;;;;;;;1999.90;999.90;;;;;;;;;;5123696;27;20405;-76
2022/06/19 05:25:37;;;;;;;1999.90;999.90;;;;;;;;;;5122754;27;20401;-75
2022/06/19 05:28:05;;;;;;;1999.90;999.90;;;;;;;;;;5127399;27;21605;-76
2022/06/19 05:30:33;;;;;;;1999.90;999.90;;;;;;;;;;5116095;27;20394;-74
2022/06/19 05:33:01;;;;;;;1999.90;999.90;;;;;;;;;;5122894;27;20466;-74
2022/06/19 05:35:28;;;;;;;1999.90;999.90;;;;;;;;;;5101594;27;20401;-73
2022/06/19 05:37:58;;;;;;;1999.90;999.90;;;;;;;;;;5125575;27;21269;-73
2022/06/19 05:40:26;;;;;;;1999.90;999.90;;;;;;;;;;5128425;27;20415;-73
2022/06/19 05:42:53;;;;;;;1999.90;999.90;;;;;;;;;;5118603;27;20417;-72
2022/06/19 05:45:21;;;;;;;1999.90;999.90;;;;;;;;;;5120864;27;20509;-68
2022/06/19 05:47:49;;;;;;;1999.90;999.90;;;;;;;;;;5116772;27;20975;-71
2022/06/19 05:50:17;;;;;;;1999.90;999.90;;;;;;;;;;5122408;27;20498;-71
2022/06/19 05:52:45;;;;;;;1999.90;999.90;;;;;;;;;;5121742;27;20417;-72
2022/06/19 05:55:14;;;;;;;1999.90;999.90;;;;;;;;;;5122851;27;20584;-72
2022/06/19 05:57:41;;;;;;;1999.90;999.90;;;;;;;;;;5118393;27;20397;-73
2022/06/19 06:00:10;;;;;;;1999.90;999.90;;;;;;;;;;5119124;27;20396;-71
2022/06/19 06:02:42;;;;;;;1999.90;999.90;;;;;;;;;;5108844;27;20392;-71
2022/06/19 06:05:10;;;;;;;1999.90;999.90;;;;;;;;;;5117155;27;20807;-71
2022/06/19 06:07:38;;;;;;;1999.90;999.90;;;;;;;;;;5118987;27;20387;-71
2022/06/19 06:10:06;;;;;;;1999.90;999.90;;;;;;;;;;5111072;27;20819;-71
2022/06/19 06:12:35;;;;;;;1999.90;999.90;;;;;;;;;;5109866;27;20391;-69
2022/06/19 06:15:03;;;;;;;1999.90;999.90;;;;;;;;;;5121779;27;20409;-71
2022/06/19 06:17:31;;;;;;;1999.90;999.90;;;;;;;;;;5116381;27;20413;-72
2022/06/19 06:19:59;;;;;;;1999.90;999.90;;;;;;;;;;5116360;27;20552;-71
2022/06/19 06:22:27;;;;;;;1999.90;999.90;;;;;;;;;;5100298;27;20398;-71
2022/06/19 06:24:54;;;;;;;1999.90;999.90;;;;;;;;;;5127777;27;20424;-72
2022/06/19 06:27:23;;;;;;;1999.90;999.90;;;;;;;;;;5122831;27;20409;-71
2022/06/19 06:29:52;;;;;;;1999.90;999.90;;;;;;;;;;5099107;27;20409;-71
2022/06/19 06:32:20;;;;;;;1999.90;999.90;;;;;;;;;;5119327;27;20421;-72
2022/06/19 06:34:49;;;;;;;1999.90;999.90;;;;;;;;;;5124252;27;20409;-71
2022/06/19 06:37:18;;;;;;;1999.90;999.90;;;;;;;;;;5120378;27;20401;-71
2022/06/19 06:39:46;;;;;;;1999.90;999.90;;;;;;;;;;5124639;27;20409;-71
2022/06/19 06:42:13;;;;;;;1999.90;999.90;;;;;;;;;;5121392;27;20801;-71
2022/06/19 06:44:41;;;;;;;1999.90;999.90;;;;;;;;;;5123883;27;20420;-71
2022/06/19 06:47:11;;;;;;;1999.90;999.90;;;;;;;;;;5124249;27;20410;-72
2022/06/19 06:49:39;;;;;;;1999.90;999.90;;;;;;;;;;5124398;27;20393;-71
2022/06/19 06:52:08;;;;;;;1999.90;999.90;;;;;;;;;;5139264;27;20384;-71
2022/06/19 06:54:37;;;;;;;1999.90;999.90;;;;;;;;;;5121603;27;20895;-71
2022/06/19 06:57:05;;;;;;;1999.90;999.90;;;;;;;;;;5139755;27;20394;-71
2022/06/19 06:59:34;;;;;;;1999.90;999.90;;;;;;;;;;5126623;27;20396;-71
2022/06/19 07:02:01;;;;;;;1999.90;999.90;;;;;;;;;;5127122;27;20398;-71
2022/06/19 07:04:30;;;;;;;1999.90;999.90;;;;;;;;;;5127062;27;20417;-71
2022/06/19 07:07:06;;;;;;;1999.90;999.90;;;;;;;;;;5125014;27;20463;-71
2022/06/19 07:09:33;;;;;;;1999.90;999.90;;;;;;;;;;5110617;27;20393;-71
2022/06/19 07:12:02;;;;;;;1999.90;999.90;;;;;;;;;;5124604;27;20394;-70
2022/06/19 07:14:30;;;;;;;1999.90;999.90;;;;;;;;;;5128317;27;20400;-71
2022/06/19 07:16:57;;;;;;;1999.90;999.90;;;;;;;;;;5127021;27;20376;-70
2022/06/19 07:19:26;;;;;;;1999.90;999.90;;;;;;;;;;5123718;27;20886;-71
2022/06/19 07:21:56;;;;;;;1999.90;999.90;;;;;;;;;;5127148;27;20416;-76
2022/06/19 07:24:25;;;;;;;1999.90;999.90;;;;;;;;;;5111175;27;20401;-76
2022/06/19 07:26:53;;;;;;;1999.90;999.90;;;;;;;;;;5128091;27;20396;-76
2022/06/19 07:29:21;;;;;;;1999.90;999.90;;;;;;;;;;5120879;27;20398;-73
2022/06/19 07:31:48;;;;;;;1999.90;999.90;;;;;;;;;;5106186;27;20388;-75
2022/06/19 07:34:16;;;;;;;1999.90;999.90;;;;;;;;;;5122392;27;20911;-75
2022/06/19 07:36:50;;;;;;;1999.90;999.90;;;;;;;;;;5130089;27;20384;-74
2022/06/19 07:39:21;;;;;;;1999.90;999.90;;;;;;;;;;5131597;27;20878;-75
2022/06/19 07:41:49;;;;;;;1999.90;999.90;;;;;;;;;;5130767;27;20388;-75
2022/06/19 07:44:17;;;;;;;1999.90;999.90;;;;;;;;;;5118307;27;20433;-74
2022/06/19 07:52:13;;;;;;;1999.90;999.90;;;;;;;;;;5125519;27;20918;-73
2022/06/19 07:54:42;;;;;;;1999.90;999.90;;;;;;;;;;5122378;27;20859;-74
2022/06/19 07:57:10;;;;;;;1999.90;999.90;;;;;;;;;;5127632;27;20404;-75
2022/06/19 07:59:38;;;;;;;1999.90;999.90;;;;;;;;;;5128096;27;20398;-75
2022/06/19 08:02:05;;;;;;;1999.90;999.90;;;;;;;;;;5121433;27;20388;-77
2022/06/19 08:04:35;;;;;;;1999.90;999.90;;;;;;;;;;5123140;27;20396;-74
2022/06/19 08:07:10;;;;;;;1999.90;999.90;;;;;;;;;;5122135;27;20389;-74
2022/06/19 08:09:37;;;;;;;1999.90;999.90;;;;;;;;;;5128103;27;21269;-75
2022/06/19 08:12:07;;;;;;;1999.90;999.90;;;;;;;;;;5127408;27;20503;-76
2022/06/19 08:14:35;;;;;;;1999.90;999.90;;;;;;;;;;5127947;27;20409;-74
2022/06/19 08:17:03;;;;;;;1999.90;999.90;;;;;;;;;;5129735;27;20376;-74
2022/06/19 08:19:31;;;;;;;1999.90;999.90;;;;;;;;;;5145888;27;20491;-74
2022/06/19 08:21:59;;;;;;;1999.90;999.90;;;;;;;;;;5119694;27;20396;-73
2022/06/19 08:24:27;;;;;;;1999.90;999.90;;;;;;;;;;5128946;27;20519;-75
2022/06/19 08:26:55;;;;;;;1999.90;999.90;;;;;;;;;;5124237;27;20480;-76
2022/06/19 08:29:24;;;;;;;1999.90;999.90;;;;;;;;;;5130309;27;20392;-75
2022/06/19 08:31:52;;;;;;;1999.90;999.90;;;;;;;;;;5126648;27;20388;-75
2022/06/19 08:34:20;;;;;;;1999.90;999.90;;;;;;;;;;5125210;27;20433;-76
2022/06/19 08:36:48;;;;;;;1999.90;999.90;;;;;;;;;;5121719;27;20378;-74
2022/06/19 08:39:17;;;;;;;1999.90;999.90;;;;;;;;;;5134553;27;20407;-75
2022/06/19 08:41:50;;;;;;;1999.90;999.90;;;;;;;;;;5123224;27;21111;-75
2022/06/19 08:44:36;;;;;;;1999.90;999.90;;;;;;;;;;5125024;27;20758;-74
2022/06/19 08:47:13;;;;;;;1999.90;999.90;;;;;;;;;;5126681;27;20381;-74
2022/06/19 08:49:47;;;;;;;1999.90;999.90;;;;;;;;;;5129655;27;20512;-74
2022/06/19 08:52:20;;;;;;;1999.90;999.90;;;;;;;;;;5124766;27;20407;-74
2022/06/19 08:54:56;;;;;;;1999.90;999.90;;;;;;;;;;5119939;27;20409;-75
2022/06/19 08:57:27;;;;;;;1999.90;999.90;;;;;;;;;;5122333;27;20398;-75
2022/06/19 09:00:02;;;;;;;1999.90;999.90;;;;;;;;;;5124131;27;20409;-74
2022/06/19 09:02:38;;;;;;;1999.90;999.90;;;;;;;;;;5124531;27;20396;-73
2022/06/19 09:08:27;;;;;;;1999.90;999.90;;;;;;;;;;5096796;27;20388;-76
2022/06/19 09:10:58;;;;;;;1999.90;999.90;;;;;;;;;;5092824;27;20479;-74
2022/06/19 09:13:35;;;;;;;1999.90;999.90;;;;;;;;;;5123475;27;20474;-75
2022/06/19 09:16:04;;;;;;;1999.90;999.90;;;;;;;;;;5120792;27;20405;-73
2022/06/19 09:18:38;;;;;;;1999.90;999.90;;;;;;;;;;5106111;27;21630;-73
2022/06/19 09:21:09;;;;;;;1999.90;999.90;;;;;;;;;;5125169;27;21446;-74
2022/06/19 09:23:47;;;;;;;1999.90;999.90;;;;;;;;;;5126734;27;20392;-75
2022/06/19 09:26:17;;;;;;;1999.90;999.90;;;;;;;;;;5130086;27;20528;-73
2022/06/19 09:28:48;;;;;;;1999.90;999.90;;;;;;;;;;5131595;27;20388;-74
2022/06/19 09:31:18;;;;;;;1999.90;999.90;;;;;;;;;;5106721;27;21390;-76
2022/06/19 09:33:50;;;;;;;1999.90;999.90;;;;;;;;;;5106805;27;20478;-75
2022/06/19 09:36:21;;;;;;;1999.90;999.90;;;;;;;;;;5126954;27;20859;-74
2022/06/19 09:38:52;;;;;;;1999.90;999.90;;;;;;;;;;5128058;27;20405;-74
2022/06/19 09:41:22;;;;;;;1999.90;999.90;;;;;;;;;;5127340;27;20402;-75
2022/06/19 09:43:52;;;;;;;1999.90;999.90;;;;;;;;;;5119273;27;20419;-74
2022/06/19 09:46:22;;;;;;;1999.90;999.90;;;;;;;;;;5128775;27;20531;-74
2022/06/19 09:48:56;;;;;;;1999.90;999.90;;;;;;;;;;5134639;27;20386;-73
2022/06/19 09:51:25;;;;;;;1999.90;999.90;;;;;;;;;;5129405;27;20389;-74
2022/06/19 09:53:56;;;;;;;1999.90;999.90;;;;;;;;;;5123337;27;20400;-74
2022/06/19 09:56:31;;;;;;;1999.90;999.90;;;;;;;;;;5130502;27;20239;-77
2022/06/19 09:59:02;;;;;;;1999.90;999.90;;;;;;;;;;5142083;27;20387;-73
2022/06/19 10:01:30;;;;;;;1999.90;999.90;;;;;;;;;;5131264;27;20417;-75
2022/06/19 10:04:02;;;;;;;1999.90;999.90;;;;;;;;;;5133010;27;20402;-76
2022/06/19 10:06:34;;;;;;;1999.90;999.90;;;;;;;;;;5130140;27;20401;-74
2022/06/19 10:09:04;;;;;;;1999.90;999.90;;;;;;;;;;5114005;27;20429;-72
2022/06/19 10:11:34;;;;;;;1999.90;999.90;;;;;;;;;;5128880;27;20392;-76
2022/06/19 10:14:04;;;;;;;1999.90;999.90;;;;;;;;;;5126563;27;20409;-77
2022/06/19 10:16:36;;;;;;;1999.90;999.90;;;;;;;;;;5152096;27;20401;-76
2022/06/19 10:19:21;;;;;;;1999.90;999.90;;;;;;;;;;5114848;27;20400;-75
2022/06/19 10:24:43;;;;;;;1999.90;999.90;;;;;;;;;;5108129;27;20551;-75
2022/06/19 10:27:18;;;;;;;1999.90;999.90;;;;;;;;;;5127469;27;20880;-75
2022/06/19 10:29:54;;;;;;;1999.90;999.90;;;;;;;;;;5112041;27;20934;-75
2022/06/19 10:32:32;;;;;;;1999.90;999.90;;;;;;;;;;5126415;27;20366;-75
2022/06/19 10:35:06;;;;;;;1999.90;999.90;;;;;;;;;;5131480;27;20398;-74
2022/06/19 10:37:41;;;;;;;1999.90;999.90;;;;;;;;;;5127709;27;20851;-76
2022/06/19 10:40:13;;;;;;;1999.90;999.90;;;;;;;;;;5127960;27;20399;-75
2022/06/19 10:42:46;;;;;;;1999.90;999.90;;;;;;;;;;5126547;27;20596;-74
2022/06/19 10:45:22;;;;;;;1999.90;999.90;;;;;;;;;;5124006;27;20405;-74
2022/06/19 10:47:57;;;;;;;1999.90;999.90;;;;;;;;;;5112728;27;20396;-75
2022/06/19 10:50:31;;;;;;;1999.90;999.90;;;;;;;;;;5124392;27;20403;-76
2022/06/19 10:53:04;;;;;;;1999.90;999.90;;;;;;;;;;5137132;27;20393;-75
2022/06/19 10:55:35;;;;;;;1999.90;999.90;;;;;;;;;;5126991;27;20476;-73
2022/06/19 10:58:09;;;;;;;1999.90;999.90;;;;;;;;;;5128301;27;20384;-74
2022/06/19 11:00:37;;;;;;;1999.90;999.90;;;;;;;;;;5130991;27;20405;-74
2022/06/19 11:05:57;;;;;;;1999.90;999.90;;;;;;;;;;5125448;27;20393;-75
2022/06/19 11:08:28;;;;;;;1999.90;999.90;;;;;;;;;;5128118;27;20404;-74
2022/06/19 11:10:57;;;;;;;1999.90;999.90;;;;;;;;;;5128992;27;20381;-73
2022/06/19 11:13:25;;;;;;;1999.90;999.90;;;;;;;;;;5123630;27;20903;-73
2022/06/19 11:16:03;;;;;;;1999.90;999.90;;;;;;;;;;5126176;27;20352;-73
2022/06/19 11:18:44;;;;;;;1999.90;999.90;;;;;;;;;;5127814;27;20864;-74
2022/06/19 11:21:14;;;;;;;1999.90;999.90;;;;;;;;;;5126518;27;21216;-73
2022/06/19 11:23:52;;;;;;;1999.90;999.90;;;;;;;;;;5129271;27;20522;-75
2022/06/19 11:26:21;;;;;;;1999.90;999.90;;;;;;;;;;5128619;27;20922;-77
2022/06/19 11:28:53;;;;;;;1999.90;999.90;;;;;;;;;;5123158;27;20998;-72
2022/06/19 11:31:24;;;;;;;1999.90;999.90;;;;;;;;;;5124205;27;20443;-74
2022/06/19 11:34:01;;;;;;;1999.90;999.90;;;;;;;;;;5124535;27;21536;-75
2022/06/19 11:36:34;;;;;;;1999.90;999.90;;;;;;;;;;5108721;27;20390;-78
2022/06/19 11:39:03;;;;;;;1999.90;999.90;;;;;;;;;;5129325;27;20398;-73
2022/06/19 11:41:33;;;;;;;1999.90;999.90;;;;;;;;;;5124342;27;21129;-75
2022/06/19 11:44:02;;;;;;;1999.90;999.90;;;;;;;;;;5126184;27;20482;-72
2022/06/19 11:46:31;;;;;;;1999.90;999.90;;;;;;;;;;5112057;27;20391;-75
2022/06/19 11:49:13;;;;;;;1999.90;999.90;;;;;;;;;;5114804;27;20399;-73
2022/06/19 11:51:44;;;;;;;1999.90;999.90;;;;;;;;;;5124822;27;20385;-73
2022/06/19 11:54:14;;;;;;;1999.90;999.90;;;;;;;;;;5126143;27;21617;-72
2022/06/19 11:56:42;;;;;;;1999.90;999.90;;;;;;;;;;5126961;27;20404;-72
2022/06/19 11:59:21;;;;;;;1999.90;999.90;;;;;;;;;;5125715;27;20500;-75
2022/06/19 12:01:49;;;;;;;1999.90;999.90;;;;;;;;;;5127402;27;20386;-74
2022/06/19 12:04:22;;;;;;;1999.90;999.90;;;;;;;;;;5127018;27;20484;-72
2022/06/19 12:06:52;;;;;;;1999.90;999.90;;;;;;;;;;5122547;27;20389;-70
2022/06/19 12:09:26;;;;;;;1999.90;999.90;;;;;;;;;;5123796;27;20970;-71
2022/06/19 12:11:58;;;;;;;1999.90;999.90;;;;;;;;;;5125249;27;20376;-74
2022/06/19 12:14:34;;;;;;;1999.90;999.90;;;;;;;;;;5123965;27;20393;-73
2022/06/19 12:17:11;;;;;;;1999.90;999.90;;;;;;;;;;5126561;27;20382;-71
2022/06/19 12:19:47;;;;;;;1999.90;999.90;;;;;;;;;;5124459;27;20439;-71
2022/06/19 12:22:18;;;;;;;1999.90;999.90;;;;;;;;;;5124600;27;20413;-72
2022/06/19 12:24:50;;;;;;;1999.90;999.90;;;;;;;;;;5124662;27;20625;-75
2022/06/19 12:27:18;;;;;;;1999.90;999.90;;;;;;;;;;5122236;27;20849;-73
2022/06/19 12:29:50;;;;;;;1999.90;999.90;;;;;;;;;;5129298;27;20439;-73
2022/06/19 12:32:22;;;;;;;1999.90;999.90;;;;;;;;;;5125628;27;20381;-72
2022/06/19 12:34:51;;;;;;;1999.90;999.90;;;;;;;;;;5128665;27;20412;-72
2022/06/19 12:37:23;;;;;;;1999.90;999.90;;;;;;;;;;5122530;27;20378;-74
2022/06/19 12:39:51;;;;;;;1999.90;999.90;;;;;;;;;;5129877;27;20395;-72
2022/06/19 12:42:22;;;;;;;1999.90;999.90;;;;;;;;;;5123103;27;20381;-73
2022/06/19 12:44:56;;;;;;;1999.90;999.90;;;;;;;;;;5126974;27;20378;-75
2022/06/19 12:47:27;;;;;;;1999.90;999.90;;;;;;;;;;5131271;27;20420;-72
2022/06/19 12:50:02;;;;;;;1999.90;999.90;;;;;;;;;;5132160;27;20397;-72
2022/06/19 12:52:39;;;;;;;1999.90;999.90;;;;;;;;;;5126353;27;20482;-74
2022/06/19 12:55:13;;;;;;;1999.90;999.90;;;;;;;;;;5124132;27;20400;-71
2022/06/19 12:57:53;;;;;;;1999.90;999.90;;;;;;;;;;5120851;27;20386;-75
2022/06/19 13:00:28;;;;;;;1999.90;999.90;;;;;;;;;;5123746;27;20485;-73
2022/06/19 13:03:14;;;;;;;1999.90;999.90;;;;;;;;;;5102362;27;20439;-75
2022/06/19 13:05:47;;;;;;;1999.90;999.90;;;;;;;;;;5112141;27;20413;-75
2022/06/19 13:08:22;;;;;;;1999.90;999.90;;;;;;;;;;5124759;27;20400;-72
2022/06/19 13:10:55;;;;;;;1999.90;999.90;;;;;;;;;;5119363;27;20472;-74
2022/06/19 13:13:54;;;;;;;1999.90;999.90;;;;;;;;;;5123583;27;20388;-75
2022/06/19 13:16:23;;;;;;;1999.90;999.90;;;;;;;;;;5104601;27;20887;-75
2022/06/19 13:18:56;;;;;;;1999.90;999.90;;;;;;;;;;5126655;27;20405;-75
2022/06/19 13:21:28;;;;;;;1999.90;999.90;;;;;;;;;;5126665;27;20418;-73
2022/06/19 13:24:04;;;;;;;1999.90;999.90;;;;;;;;;;5132469;27;20471;-72
2022/06/19 13:29:30;;;;;;;1999.90;999.90;;;;;;;;;;5119083;27;20994;-72
2022/06/19 13:32:04;;;;;;;1999.90;999.90;;;;;;;;;;5139734;27;20400;-72
2022/06/19 13:34:40;;;;;;;1999.90;999.90;;;;;;;;;;5116181;27;20417;-72
2022/06/19 13:37:10;;;;;;;1999.90;999.90;;;;;;;;;;5118020;27;20412;-72
2022/06/19 13:39:44;;;;;;;1999.90;999.90;;;;;;;;;;5127619;27;20376;-74
2022/06/19 13:42:25;;;;;;;1999.90;999.90;;;;;;;;;;5121672;27;20405;-73
2022/06/19 13:44:59;;;;;;;1999.90;999.90;;;;;;;;;;5120720;27;20764;-72
2022/06/19 13:47:31;;;;;;;1999.90;999.90;;;;;;;;;;5129264;27;20376;-72
2022/06/19 13:50:01;;;;;;;1999.90;999.90;;;;;;;;;;5145185;27;20392;-71
2022/06/19 13:52:34;;;;;;;1999.90;999.90;;;;;;;;;;5122957;27;20412;-75
2022/06/19 13:55:05;;;;;;;1999.90;999.90;;;;;;;;;;5128754;27;20919;-72
2022/06/19 13:57:36;;;;;;;1999.90;999.90;;;;;;;;;;5126390;27;20399;-74
2022/06/19 14:00:13;;;;;;;1999.90;999.90;;;;;;;;;;5121946;27;20409;-73
2022/06/19 14:02:50;;;;;;;1999.90;999.90;;;;;;;;;;5120282;27;20393;-71
2022/06/19 14:05:24;;;;;;;1999.90;999.90;;;;;;;;;;5119963;27;20427;-72
2022/06/19 14:08:03;;;;;;;1999.90;999.90;;;;;;;;;;5127185;27;20413;-74
2022/06/19 14:10:44;;;;;;;1999.90;999.90;;;;;;;;;;5123447;27;20500;-72
2022/06/19 14:13:21;;;;;;;1999.90;999.90;;;;;;;;;;5132251;27;20420;-74
2022/06/19 14:16:01;;;;;;;1999.90;999.90;;;;;;;;;;5122884;27;20865;-72
2022/06/19 14:18:42;;;;;;;1999.90;999.90;;;;;;;;;;5126829;27;20413;-73
2022/06/19 14:21:24;;;;;;;1999.90;999.90;;;;;;;;;;5127677;27;20392;-73